createdAt,value
2018-12-08T00:00:06.564Z,1.93
2018-12-08T00:02:35.112Z,1.77
2018-12-08T00:05:04.134Z,1.80
2018-12-08T00:07:33.081Z,2.00
2018-12-08T00:10:01.737Z,2.10
2018-12-08T00:12:30.664Z,2.20
2018-12-08T00:14:59.474Z,2.67
2018-12-08T00:17:28.140Z,4.13
2018-12-08T00:19:56.804Z,2.20
2018-12-08T00:22:25.561Z,2.90
2018-12-08T00:24:54.288Z,2.90
2018-12-08T00:27:23.289Z,3.43
2018-12-08T00:29:52.088Z,2.27
2018-12-08T00:32:20.800Z,2.03
2018-12-08T00:34:49.571Z,2.57
2018-12-08T00:37:18.232Z,3.00
2018-12-08T00:39:46.713Z,2.57
2018-12-08T00:42:15.431Z,2.40
2018-12-08T00:44:43.952Z,4.70
2018-12-08T00:47:12.470Z,2.30
2018-12-08T00:49:41.033Z,2.60
2018-12-08T00:52:09.859Z,2.80
2018-12-08T00:54:38.484Z,2.43
2018-12-08T00:57:07.385Z,3.23
2018-12-08T00:59:37.855Z,3.83
2018-12-08T01:02:06.589Z,2.50
2018-12-08T01:04:35.138Z,2.30
2018-12-08T01:07:03.844Z,2.40
2018-12-08T01:09:32.784Z,2.60
2018-12-08T01:12:01.408Z,2.73
2018-12-08T01:14:29.901Z,2.60
2018-12-08T01:16:58.681Z,2.13
2018-12-08T01:19:27.629Z,2.07
2018-12-08T01:21:56.568Z,2.63
2018-12-08T01:24:25.419Z,3.40
2018-12-08T01:26:54.539Z,3.80
2018-12-08T01:29:23.473Z,2.80
2018-12-08T01:31:52.582Z,2.50
2018-12-08T01:34:21.440Z,2.20
2018-12-08T01:36:50.050Z,2.33
2018-12-08T01:39:18.999Z,2.90
2018-12-08T01:41:47.811Z,2.83
2018-12-08T01:44:16.983Z,1.93
2018-12-08T01:46:45.941Z,1.77
2018-12-08T01:49:14.444Z,2.30
2018-12-08T01:51:43.275Z,2.27
2018-12-08T01:54:12.240Z,2.00
2018-12-08T01:56:41.135Z,2.43
2018-12-08T01:59:10.017Z,3.80
2018-12-08T02:01:39.066Z,2.03
2018-12-08T02:04:08.396Z,3.03
2018-12-08T02:06:37.170Z,2.13
2018-12-08T02:09:07.848Z,2.43
2018-12-08T02:11:36.778Z,2.50
2018-12-08T02:14:05.357Z,2.93
2018-12-08T02:16:34.040Z,1.97
2018-12-08T02:19:02.968Z,2.40
2018-12-08T02:21:32.074Z,2.30
2018-12-08T02:24:00.791Z,3.20
2018-12-08T02:26:29.519Z,2.57
2018-12-08T02:28:58.220Z,2.73
2018-12-08T02:31:27.706Z,3.07
2018-12-08T02:33:56.711Z,2.20
2018-12-08T02:36:25.568Z,2.87
2018-12-08T02:38:54.596Z,2.67
2018-12-08T02:41:23.445Z,2.97
2018-12-08T02:43:52.276Z,2.97
2018-12-08T02:46:21.127Z,3.17
2018-12-08T02:48:49.734Z,3.00
2018-12-08T02:51:18.818Z,2.77
2018-12-08T02:53:47.690Z,2.87
2018-12-08T02:56:16.353Z,2.80
2018-12-08T02:58:45.165Z,2.23
2018-12-08T03:01:14.252Z,2.70
2018-12-08T03:03:43.192Z,2.80
2018-12-08T03:06:12.143Z,2.53
2018-12-08T03:08:40.641Z,3.13
2018-12-08T03:11:09.221Z,2.90
2018-12-08T03:13:38.292Z,2.67
2018-12-08T03:16:06.860Z,2.67
2018-12-08T03:18:35.878Z,2.83
2018-12-08T03:21:04.332Z,3.33
2018-12-08T03:23:32.813Z,3.37
2018-12-08T03:26:01.304Z,2.80
2018-12-08T03:28:29.754Z,3.20
2018-12-08T03:30:58.195Z,2.77
2018-12-08T03:33:26.667Z,2.50
2018-12-08T03:35:55.130Z,3.30
2018-12-08T03:38:23.573Z,3.67
2018-12-08T03:40:52.036Z,2.83
2018-12-08T03:43:20.496Z,2.67
2018-12-08T03:45:48.958Z,2.43
2018-12-08T03:48:17.507Z,2.63
2018-12-08T03:50:45.963Z,2.30
2018-12-08T03:53:14.520Z,3.10
2018-12-08T03:55:44.959Z,2.50
2018-12-08T03:58:13.586Z,2.43
2018-12-08T04:00:42.050Z,2.17
2018-12-08T04:03:10.515Z,3.00
2018-12-08T04:05:38.999Z,2.67
2018-12-08T04:08:07.489Z,3.50
2018-12-08T04:10:35.928Z,3.13
2018-12-08T04:13:04.451Z,2.03
2018-12-08T04:15:33.125Z,2.80
2018-12-08T04:18:01.580Z,2.73
2018-12-08T04:20:30.013Z,4.03
2018-12-08T04:22:58.476Z,3.00
2018-12-08T04:25:26.952Z,2.90
2018-12-08T04:27:55.411Z,2.53
2018-12-08T04:30:23.861Z,3.13
2018-12-08T04:32:52.329Z,4.70
2018-12-08T04:56:09.981Z,2.73
2018-12-08T04:58:38.498Z,3.10
2018-12-08T05:01:06.982Z,2.60
2018-12-08T05:03:35.540Z,2.97
2018-12-08T05:06:04.124Z,3.60
2018-12-08T05:08:32.612Z,3.13
2018-12-08T05:11:01.068Z,3.27
2018-12-08T05:13:29.563Z,3.67
2018-12-08T05:15:58.027Z,3.60
2018-12-08T05:18:26.534Z,3.37
2018-12-08T05:20:55.078Z,4.50
2018-12-08T05:23:23.696Z,3.90
2018-12-08T05:25:52.736Z,3.13
2018-12-08T05:28:21.436Z,3.87
2018-12-08T05:30:50.066Z,3.33
2018-12-08T05:33:18.592Z,3.10
2018-12-08T05:35:47.729Z,3.03
2018-12-08T05:38:16.424Z,4.77
2018-12-08T05:40:45.167Z,4.50
2018-12-08T05:43:14.332Z,3.87
2018-12-08T05:45:43.247Z,3.57
2018-12-08T05:48:11.930Z,2.53
2018-12-08T05:50:40.651Z,3.47
2018-12-08T05:53:09.687Z,2.73
2018-12-08T05:55:38.713Z,2.83
2018-12-08T05:58:07.765Z,3.20
2018-12-08T06:00:36.937Z,2.93
2018-12-08T06:03:06.002Z,4.00
2018-12-08T06:05:34.620Z,4.00
2018-12-08T06:08:03.679Z,4.20
2018-12-08T06:10:32.573Z,3.40
2018-12-08T06:13:01.411Z,2.70
2018-12-08T06:15:30.184Z,3.60
2018-12-08T06:17:59.055Z,2.40
2018-12-08T06:20:27.614Z,3.43
2018-12-08T06:22:56.061Z,3.80
2018-12-08T06:25:29.347Z,3.80
2018-12-08T06:28:09.403Z,3.67
2018-12-08T06:30:38.407Z,2.63
2018-12-08T06:33:06.871Z,4.67
2018-12-08T06:35:35.329Z,2.67
2018-12-08T06:38:03.903Z,4.20
2018-12-08T06:40:32.364Z,3.07
2018-12-08T06:43:00.857Z,4.00
2018-12-08T06:45:29.331Z,3.10
2018-12-08T06:47:57.778Z,4.13
2018-12-08T06:50:26.246Z,3.40
2018-12-08T06:52:54.716Z,3.40
2018-12-08T06:57:50.660Z,3.03
2018-12-08T07:00:19.158Z,3.63
2018-12-08T07:02:47.630Z,4.13
2018-12-08T07:05:16.135Z,4.13
2018-12-08T07:07:44.602Z,3.60
2018-12-08T07:10:13.062Z,3.83
2018-12-08T07:12:41.543Z,3.70
2018-12-08T07:15:10.022Z,3.13
2018-12-08T07:17:38.489Z,4.03
2018-12-08T07:20:07.478Z,4.17
2018-12-08T07:22:35.920Z,3.63
2018-12-08T07:25:04.382Z,5.20
2018-12-08T07:27:32.906Z,3.53
2018-12-08T07:30:01.348Z,3.67
2018-12-08T07:32:29.798Z,3.60
2018-12-08T07:34:58.357Z,3.07
2018-12-08T07:37:26.802Z,4.30
2018-12-08T07:39:55.257Z,3.80
2018-12-08T07:42:23.732Z,3.40
2018-12-08T07:44:52.170Z,3.30
2018-12-08T07:47:20.630Z,2.97
2018-12-08T07:49:49.083Z,3.63
2018-12-08T07:52:17.545Z,3.90
2018-12-08T07:54:46.063Z,3.53
2018-12-08T07:57:14.537Z,2.60
2018-12-08T07:59:43.026Z,3.13
2018-12-08T08:02:11.592Z,3.10
2018-12-08T08:04:40.075Z,2.97
2018-12-08T08:07:08.546Z,3.00
2018-12-08T08:09:37.053Z,3.60
2018-12-08T08:12:05.542Z,3.30
2018-12-08T08:14:34.044Z,3.97
2018-12-08T08:17:02.798Z,3.87
2018-12-08T08:19:31.582Z,4.57
2018-12-08T08:22:00.309Z,3.63
2018-12-08T08:24:29.379Z,4.20
2018-12-08T08:26:58.031Z,2.93
2018-12-08T08:29:26.571Z,4.47
2018-12-08T08:31:55.560Z,3.20
2018-12-08T08:34:24.260Z,2.97
2018-12-08T08:36:53.261Z,4.27
2018-12-08T08:39:21.788Z,3.90
2018-12-08T08:41:50.271Z,3.43
2018-12-08T08:44:18.813Z,3.03
2018-12-08T08:46:47.350Z,3.60
2018-12-08T08:49:15.881Z,2.90
2018-12-08T08:51:44.391Z,3.50
2018-12-08T08:54:12.883Z,3.57
2018-12-08T08:56:41.449Z,3.80
2018-12-08T08:59:09.999Z,3.27
2018-12-08T09:01:38.533Z,3.47
2018-12-08T09:04:07.102Z,3.40
2018-12-08T09:06:35.642Z,3.83
2018-12-08T09:09:05.343Z,3.40
2018-12-08T09:11:33.858Z,2.67
2018-12-08T09:14:02.571Z,3.60
2018-12-08T09:16:31.080Z,2.90
2018-12-08T09:18:59.607Z,3.10
2018-12-08T09:21:28.203Z,3.07
2018-12-08T09:23:56.915Z,3.20
2018-12-08T09:26:25.544Z,3.77
2018-12-08T09:28:54.062Z,2.60
2018-12-08T09:31:22.661Z,3.77
2018-12-08T09:33:54.583Z,3.70
2018-12-08T09:36:23.464Z,3.50
2018-12-08T09:39:06.026Z,3.10
2018-12-08T09:41:53.253Z,4.40
2018-12-08T09:44:31.644Z,4.13
2018-12-08T09:47:19.275Z,3.90
2018-12-08T09:49:57.279Z,2.77
2018-12-08T09:52:45.270Z,3.40
2018-12-08T09:55:18.342Z,3.23
2018-12-08T09:57:58.185Z,3.30
2018-12-08T10:00:27.578Z,3.40
2018-12-08T10:02:56.099Z,3.17
2018-12-08T10:05:29.942Z,3.27
2018-12-08T10:07:58.400Z,3.20
2018-12-08T10:10:26.861Z,3.63
2018-12-08T10:12:59.747Z,4.10
2018-12-08T10:15:28.586Z,3.40
2018-12-08T10:17:57.408Z,3.60
2018-12-08T10:20:26.229Z,2.83
2018-12-08T10:22:55.179Z,2.03
2018-12-08T10:25:24.298Z,3.07
2018-12-08T10:27:53.166Z,3.00
2018-12-08T10:30:22.174Z,3.13
2018-12-08T10:32:51.108Z,3.70
2018-12-08T10:35:19.788Z,4.70
2018-12-08T10:37:48.281Z,3.37
2018-12-08T10:40:16.952Z,3.47
2018-12-08T10:42:45.798Z,2.70
2018-12-08T10:45:14.726Z,2.30
2018-12-08T10:47:43.282Z,3.43
2018-12-08T10:50:12.145Z,3.37
2018-12-08T10:52:40.954Z,3.20
2018-12-08T10:55:10.443Z,3.60
2018-12-08T10:57:39.314Z,2.77
2018-12-08T11:00:13.314Z,2.73
2018-12-08T11:02:46.169Z,2.70
2018-12-08T11:05:15.151Z,3.53
2018-12-08T11:07:43.692Z,3.93
2018-12-08T11:10:12.312Z,3.43
2018-12-08T11:12:41.183Z,3.13
2018-12-08T11:15:10.171Z,2.23
2018-12-08T11:17:38.923Z,2.90
2018-12-08T11:20:07.919Z,3.40
2018-12-08T11:22:36.627Z,3.00
2018-12-08T11:25:05.444Z,3.20
2018-12-08T11:27:34.099Z,3.70
2018-12-08T11:30:03.153Z,2.80
2018-12-08T11:32:32.221Z,2.93
2018-12-08T11:35:01.194Z,2.73
2018-12-08T11:37:30.385Z,3.27
2018-12-08T11:39:58.879Z,2.70
2018-12-08T11:42:27.939Z,3.03
2018-12-08T11:44:56.837Z,3.47
2018-12-08T11:47:25.762Z,2.97
2018-12-08T11:49:54.290Z,2.53
2018-12-08T11:52:22.885Z,3.10
2018-12-08T11:54:52.066Z,2.73
2018-12-08T11:57:20.961Z,2.53
2018-12-08T11:59:50.230Z,3.03
2018-12-08T12:02:19.164Z,2.30
2018-12-08T12:04:47.998Z,2.30
2018-12-08T12:07:16.901Z,2.70
2018-12-08T12:09:45.984Z,2.70
2018-12-08T12:12:14.924Z,2.73
2018-12-08T12:14:48.552Z,2.27
2018-12-08T12:17:17.107Z,2.10
2018-12-08T12:19:45.835Z,2.20
2018-12-08T12:22:14.797Z,2.30
2018-12-08T12:24:43.312Z,2.03
2018-12-08T12:27:11.994Z,2.37
2018-12-08T12:29:40.914Z,2.57
2018-12-08T12:32:09.455Z,3.10
2018-12-08T12:34:38.415Z,3.40
2018-12-08T12:37:07.460Z,2.10
2018-12-08T12:39:36.479Z,2.40
2018-12-08T12:42:05.562Z,2.67
2018-12-08T12:44:35.182Z,2.83
2018-12-08T12:47:03.906Z,2.50
2018-12-08T12:49:32.618Z,2.30
2018-12-08T12:52:01.535Z,2.40
2018-12-08T12:54:30.039Z,2.30
2018-12-08T12:56:58.670Z,2.30
2018-12-08T12:59:27.168Z,2.33
2018-12-08T13:01:55.714Z,2.30
2018-12-08T13:04:24.209Z,2.60
2018-12-08T13:06:52.688Z,2.73
2018-12-08T13:09:21.252Z,2.30
2018-12-08T13:11:50.367Z,2.17
2018-12-08T13:14:18.916Z,2.93
2018-12-08T13:16:47.573Z,2.57
2018-12-08T13:19:16.137Z,2.60
2018-12-08T13:21:44.976Z,2.03
2018-12-08T13:24:13.729Z,2.50
2018-12-08T13:26:42.263Z,2.60
2018-12-08T13:29:10.814Z,2.50
2018-12-08T13:31:39.293Z,5.00
2018-12-08T13:34:23.025Z,2.10
2018-12-08T13:36:51.730Z,1.90
2018-12-08T13:39:20.193Z,2.20
2018-12-08T13:41:48.661Z,2.50
2018-12-08T13:44:28.054Z,2.80
2018-12-08T13:46:56.597Z,3.00
2018-12-08T13:49:25.064Z,4.17
2018-12-08T13:51:53.554Z,3.23
2018-12-08T13:54:48.886Z,4.03
2018-12-08T13:57:17.343Z,3.80
2018-12-08T13:59:52.912Z,2.97
2018-12-08T14:02:21.398Z,4.30
2018-12-08T14:04:50.156Z,2.67
2018-12-08T14:07:18.635Z,3.13
2018-12-08T14:09:47.101Z,2.63
2018-12-08T14:12:15.675Z,3.63
2018-12-08T14:14:44.166Z,3.80
2018-12-08T14:17:12.623Z,3.70
2018-12-08T14:19:41.079Z,3.50
2018-12-08T14:22:09.560Z,4.23
2018-12-08T14:24:38.065Z,4.40
2018-12-08T14:27:06.506Z,4.30
2018-12-08T14:29:34.980Z,4.60
2018-12-08T14:32:03.456Z,4.50
2018-12-08T14:34:31.960Z,4.33
2018-12-08T14:37:00.479Z,4.00
2018-12-08T14:39:28.933Z,4.60
2018-12-08T14:41:57.391Z,3.57
2018-12-08T14:44:25.873Z,3.87
2018-12-08T14:46:54.349Z,3.50
2018-12-08T14:49:22.799Z,3.63
2018-12-08T14:51:51.303Z,5.17
2018-12-08T14:54:19.801Z,3.60
2018-12-08T14:56:48.274Z,4.83
2018-12-08T14:59:16.740Z,4.83
2018-12-08T15:01:45.236Z,3.93
2018-12-08T15:04:13.903Z,4.50
2018-12-08T15:06:42.370Z,3.87
2018-12-08T15:09:10.873Z,4.80
2018-12-08T15:11:39.349Z,4.17
2018-12-08T15:14:07.919Z,5.63
2018-12-08T15:16:36.361Z,4.63
2018-12-08T15:19:04.826Z,3.67
2018-12-08T15:21:33.296Z,5.13
2018-12-08T15:24:01.762Z,4.03
2018-12-08T15:26:30.243Z,4.00
2018-12-08T15:28:59.486Z,3.60
2018-12-08T15:31:27.962Z,4.70
2018-12-08T15:33:56.713Z,3.87
2018-12-08T15:36:25.167Z,4.17
2018-12-08T15:38:53.659Z,3.70
2018-12-08T15:41:22.138Z,5.00
2018-12-08T15:43:50.575Z,3.97
2018-12-08T15:46:19.015Z,4.20
2018-12-08T15:48:47.584Z,2.93
2018-12-08T15:51:16.139Z,2.93
2018-12-08T15:53:44.611Z,4.43
2018-12-08T15:56:13.097Z,3.10
2018-12-08T15:58:41.569Z,3.47
2018-12-08T16:01:10.023Z,2.87
2018-12-08T16:03:38.454Z,3.10
2018-12-08T16:06:06.905Z,2.60
2018-12-08T16:08:35.347Z,3.47
2018-12-08T16:11:03.806Z,3.47
2018-12-08T16:13:32.266Z,3.63
2018-12-08T16:16:00.749Z,3.63
2018-12-08T16:18:29.267Z,3.27
2018-12-08T16:20:57.777Z,3.37
2018-12-08T16:23:26.237Z,3.50
2018-12-08T16:25:54.678Z,5.30
2018-12-08T16:28:23.206Z,3.60
2018-12-08T16:30:51.652Z,3.70
2018-12-08T16:33:20.099Z,4.10
2018-12-08T16:35:48.550Z,3.60
2018-12-08T16:38:17.128Z,2.93
2018-12-08T16:40:45.598Z,3.83
2018-12-08T16:43:14.064Z,4.50
2018-12-08T16:45:42.793Z,3.07
2018-12-08T16:48:11.275Z,4.17
2018-12-08T16:50:41.047Z,3.33
2018-12-08T16:53:09.684Z,3.10
2018-12-08T16:55:38.213Z,3.80
2018-12-08T16:58:06.683Z,3.53
2018-12-08T17:00:35.184Z,3.63
2018-12-08T17:03:03.845Z,3.90
2018-12-08T17:05:32.339Z,4.30
2018-12-08T17:08:00.858Z,4.97
2018-12-08T17:10:29.324Z,3.77
2018-12-08T17:12:57.916Z,3.83
2018-12-08T17:15:26.615Z,4.60
2018-12-08T17:17:55.112Z,3.40
2018-12-08T17:20:23.663Z,4.60
2018-12-08T17:22:52.235Z,3.80
2018-12-08T17:25:20.681Z,3.97
2018-12-08T17:27:49.165Z,3.53
2018-12-08T17:30:17.687Z,4.30
2018-12-08T17:32:46.425Z,4.47
2018-12-08T17:35:15.147Z,3.83
2018-12-08T17:37:43.799Z,3.30
2018-12-08T17:40:12.583Z,4.33
2018-12-08T17:42:41.036Z,2.83
2018-12-08T17:45:09.506Z,2.90
2018-12-08T17:47:37.986Z,2.60
2018-12-08T17:50:07.431Z,3.70
2018-12-08T17:52:35.894Z,4.07
2018-12-08T17:55:04.472Z,4.57
2018-12-08T17:57:33.035Z,4.43
2018-12-08T18:00:01.602Z,3.90
2018-12-08T18:02:30.068Z,2.50
2018-12-08T18:04:58.839Z,2.17
2018-12-08T18:07:27.308Z,2.80
2018-12-08T18:09:55.762Z,2.70
2018-12-08T18:12:24.227Z,2.57
2018-12-08T18:14:52.677Z,3.40
2018-12-08T18:17:21.188Z,3.30
2018-12-08T18:19:49.785Z,3.47
2018-12-08T18:22:18.425Z,2.93
2018-12-08T18:24:47.086Z,3.63
2018-12-08T18:27:15.851Z,2.90
2018-12-08T18:29:44.313Z,4.53
2018-12-08T18:32:12.758Z,4.03
2018-12-08T18:34:41.209Z,3.53
2018-12-08T18:37:09.659Z,3.70
2018-12-08T18:39:38.151Z,2.90
2018-12-08T18:42:06.751Z,2.90
2018-12-08T18:44:35.212Z,2.33
2018-12-08T18:47:03.689Z,3.57
2018-12-08T18:49:32.136Z,3.47
2018-12-08T18:52:00.623Z,2.63
2018-12-08T18:54:29.083Z,2.53
2018-12-08T18:56:57.506Z,2.60
2018-12-08T18:59:26.109Z,2.23
2018-12-08T19:01:54.766Z,2.60
2018-12-08T19:04:23.185Z,2.10
2018-12-08T19:06:51.637Z,1.93
2018-12-08T19:09:20.089Z,1.70
2018-12-08T19:11:48.541Z,1.90
2018-12-08T19:44:28.592Z,4.30
2018-12-08T19:46:57.040Z,3.83
2018-12-08T19:49:25.508Z,3.30
2018-12-08T19:51:53.970Z,4.50
2018-12-08T19:54:22.428Z,4.10
2018-12-08T19:56:51.190Z,3.30
2018-12-08T19:59:19.672Z,2.87
2018-12-08T20:01:48.139Z,4.30
2018-12-08T20:04:16.592Z,4.00
2018-12-08T20:06:45.260Z,5.27
2018-12-08T20:09:13.716Z,3.47
2018-12-08T20:11:42.293Z,3.33
2018-12-08T20:14:10.781Z,3.43
2018-12-08T20:16:39.224Z,3.30
2018-12-08T20:19:07.798Z,2.87
2018-12-08T20:21:36.325Z,3.63
2018-12-08T20:24:04.797Z,3.97
2018-12-08T20:26:33.264Z,3.83
2018-12-08T20:29:02.175Z,3.77
2018-12-08T20:31:30.707Z,3.90
2018-12-08T20:33:59.262Z,4.07
2018-12-08T20:36:27.877Z,5.03
2018-12-08T20:38:56.315Z,4.07
2018-12-08T20:44:46.148Z,5.27
2018-12-08T20:47:14.630Z,5.50
2018-12-08T20:49:43.170Z,5.47
2018-12-08T20:52:11.653Z,6.23
2018-12-08T20:54:40.108Z,5.03
2018-12-08T20:57:08.552Z,6.47
2018-12-08T20:59:37.007Z,5.77
2018-12-08T21:02:05.498Z,5.60
2018-12-08T21:04:34.003Z,4.93
2018-12-08T21:07:02.587Z,5.73
2018-12-08T21:09:31.051Z,5.37
2018-12-08T21:11:59.519Z,4.30
2018-12-08T21:14:27.950Z,3.83
2018-12-08T21:16:56.399Z,5.07
2018-12-08T21:19:24.911Z,3.90
2018-12-08T21:21:53.482Z,2.83
2018-12-08T21:24:21.923Z,2.40
2018-12-08T21:26:51.243Z,2.33
2018-12-08T21:29:19.824Z,3.60
2018-12-08T21:31:48.319Z,5.10
2018-12-08T21:34:16.782Z,4.67
2018-12-08T21:36:45.259Z,4.90
2018-12-08T21:39:13.678Z,5.70
2018-12-08T21:41:42.150Z,6.17
2018-12-08T21:44:10.620Z,5.53
2018-12-08T21:46:39.085Z,5.83
2018-12-08T21:49:07.538Z,6.60
2018-12-08T21:51:36.022Z,6.13
2018-12-08T21:54:04.498Z,6.30
2018-12-08T21:56:32.975Z,7.17
2018-12-08T21:59:01.455Z,6.10
2018-12-08T22:01:29.947Z,6.60
2018-12-08T22:03:58.412Z,6.07
2018-12-08T22:06:26.903Z,8.07
2018-12-08T22:08:55.382Z,6.97
2018-12-08T22:11:23.830Z,6.00
2018-12-08T22:13:52.303Z,5.23
2018-12-08T22:16:20.811Z,7.00
2018-12-08T22:18:49.366Z,6.77
2018-12-08T22:21:17.919Z,5.47
2018-12-08T22:23:46.405Z,5.00
2018-12-08T22:26:14.874Z,6.67
2018-12-08T22:28:43.332Z,5.33
2018-12-08T22:31:12.121Z,3.37
2018-12-08T22:33:40.649Z,3.37
2018-12-08T22:36:09.154Z,3.97
2018-12-08T22:38:37.630Z,6.13
2018-12-08T22:41:06.168Z,4.03
2018-12-08T22:43:35.249Z,4.57
2018-12-08T22:46:03.896Z,3.50
2018-12-08T22:48:33.861Z,3.20
2018-12-08T22:51:02.629Z,3.93
2018-12-08T22:53:31.423Z,3.70
2018-12-08T22:56:00.597Z,4.40
2018-12-08T22:58:29.147Z,4.87
2018-12-08T23:00:57.648Z,3.70
2018-12-08T23:03:26.141Z,4.37
2018-12-08T23:05:54.935Z,3.73
2018-12-08T23:08:23.833Z,3.87
2018-12-08T23:10:52.397Z,3.17
2018-12-08T23:13:21.033Z,3.67
2018-12-08T23:15:49.623Z,4.13
2018-12-08T23:18:18.310Z,3.43
2018-12-08T23:20:47.471Z,3.80
2018-12-08T23:23:16.159Z,3.90
2018-12-08T23:25:44.617Z,3.17
2018-12-08T23:28:13.247Z,2.67
2018-12-08T23:30:41.748Z,3.17
2018-12-08T23:33:10.353Z,3.03
2018-12-08T23:35:39.403Z,3.80
2018-12-08T23:38:08.003Z,4.63
2018-12-08T23:40:36.735Z,3.30
2018-12-08T23:43:05.304Z,3.27
2018-12-08T23:45:34.005Z,4.27
2018-12-08T23:48:02.487Z,3.17
2018-12-08T23:50:31.135Z,3.30
2018-12-08T23:52:59.925Z,4.13
2018-12-08T23:55:28.586Z,3.87
2018-12-08T23:57:57.478Z,3.00
